sensor_id;sensor_type;location;lat;lon;timestamp;P1;durP1;ratioP1;P2;durP2;ratioP2
71715;SDS011;59568;52.128;5.434;2022-07-25T00:01:46;3.55;;;2.10;;
71715;SDS011;59568;52.128;5.434;2022-07-25T00:04:13;3.13;;;2.20;;
71715;SDS011;59568;52.128;5.434;2022-07-25T00:06:40;3.08;;;2.05;;
71715;SDS011;59568;52.128;5.434;2022-07-25T00:09:08;3.72;;;2.08;;
71715;SDS011;59568;52.128;5.434;2022-07-25T00:11:35;5.13;;;2.55;;
71715;SDS011;59568;52.128;5.434;2022-07-25T00:14:03;4.40;;;2.75;;
71715;SDS011;59568;52.128;5.434;2022-07-25T00:16:30;4.13;;;2.10;;
71715;SDS011;59568;52.128;5.434;2022-07-25T00:18:57;3.28;;;2.35;;
71715;SDS011;59568;52.128;5.434;2022-07-25T00:21:24;3.97;;;2.55;;
71715;SDS011;59568;52.128;5.434;2022-07-25T00:23:51;3.42;;;2.30;;
71715;SDS011;59568;52.128;5.434;2022-07-25T00:26:17;3.58;;;2.65;;
71715;SDS011;59568;52.128;5.434;2022-07-25T00:28:44;3.40;;;2.40;;
71715;SDS011;59568;52.128;5.434;2022-07-25T00:31:11;4.75;;;2.28;;
71715;SDS011;59568;52.128;5.434;2022-07-25T00:33:38;3.53;;;2.45;;
71715;SDS011;59568;52.128;5.434;2022-07-25T00:36:06;4.53;;;2.65;;
71715;SDS011;59568;52.128;5.434;2022-07-25T00:38:33;4.43;;;2.55;;
71715;SDS011;59568;52.128;5.434;2022-07-25T00:41:01;4.60;;;2.40;;
71715;SDS011;59568;52.128;5.434;2022-07-25T00:43:28;3.17;;;2.17;;
71715;SDS011;59568;52.128;5.434;2022-07-25T00:45:55;5.32;;;2.97;;
71715;SDS011;59568;52.128;5.434;2022-07-25T00:48:27;3.95;;;2.45;;
71715;SDS011;59568;52.128;5.434;2022-07-25T00:50:55;9.98;;;3.17;;
71715;SDS011;59568;52.128;5.434;2022-07-25T00:53:22;3.05;;;2.35;;
71715;SDS011;59568;52.128;5.434;2022-07-25T00:55:50;5.47;;;3.33;;
71715;SDS011;59568;52.128;5.434;2022-07-25T00:58:17;4.68;;;2.50;;
71715;SDS011;59568;52.128;5.434;2022-07-25T01:00:44;5.65;;;2.72;;
71715;SDS011;59568;52.128;5.434;2022-07-25T01:03:11;4.03;;;2.80;;
71715;SDS011;59568;52.128;5.434;2022-07-25T01:05:38;4.75;;;2.28;;
71715;SDS011;59568;52.128;5.434;2022-07-25T01:08:05;4.43;;;2.47;;
71715;SDS011;59568;52.128;5.434;2022-07-25T01:10:33;4.28;;;2.88;;
71715;SDS011;59568;52.128;5.434;2022-07-25T01:13:00;3.17;;;2.22;;
71715;SDS011;59568;52.128;5.434;2022-07-25T01:15:27;3.28;;;2.58;;
71715;SDS011;59568;52.128;5.434;2022-07-25T01:17:54;4.68;;;3.03;;
71715;SDS011;59568;52.128;5.434;2022-07-25T01:20:22;3.90;;;2.70;;
71715;SDS011;59568;52.128;5.434;2022-07-25T01:22:50;5.38;;;3.75;;
71715;SDS011;59568;52.128;5.434;2022-07-25T01:25:17;4.47;;;2.83;;
71715;SDS011;59568;52.128;5.434;2022-07-25T01:27:45;5.47;;;2.88;;
71715;SDS011;59568;52.128;5.434;2022-07-25T01:30:20;6.88;;;3.50;;
71715;SDS011;59568;52.128;5.434;2022-07-25T01:32:48;3.97;;;2.95;;
71715;SDS011;59568;52.128;5.434;2022-07-25T01:35:14;4.25;;;2.95;;
71715;SDS011;59568;52.128;5.434;2022-07-25T01:37:41;6.32;;;3.80;;
71715;SDS011;59568;52.128;5.434;2022-07-25T01:40:11;4.63;;;3.38;;
71715;SDS011;59568;52.128;5.434;2022-07-25T01:42:39;5.47;;;3.10;;
71715;SDS011;59568;52.128;5.434;2022-07-25T01:45:06;5.28;;;3.33;;
71715;SDS011;59568;52.128;5.434;2022-07-25T01:47:33;6.22;;;3.30;;
71715;SDS011;59568;52.128;5.434;2022-07-25T01:50:00;5.60;;;3.67;;
71715;SDS011;59568;52.128;5.434;2022-07-25T01:52:27;5.22;;;3.42;;
71715;SDS011;59568;52.128;5.434;2022-07-25T01:54:53;9.37;;;3.90;;
71715;SDS011;59568;52.128;5.434;2022-07-25T01:57:21;7.28;;;3.63;;
71715;SDS011;59568;52.128;5.434;2022-07-25T01:59:52;5.60;;;3.70;;
71715;SDS011;59568;52.128;5.434;2022-07-25T02:02:19;6.05;;;4.07;;
71715;SDS011;59568;52.128;5.434;2022-07-25T02:04:46;4.57;;;3.42;;
71715;SDS011;59568;52.128;5.434;2022-07-25T02:07:12;5.53;;;4.03;;
71715;SDS011;59568;52.128;5.434;2022-07-25T02:09:39;6.88;;;4.20;;
71715;SDS011;59568;52.128;5.434;2022-07-25T02:12:06;7.05;;;3.70;;
71715;SDS011;59568;52.128;5.434;2022-07-25T02:14:33;6.00;;;3.97;;
71715;SDS011;59568;52.128;5.434;2022-07-25T02:17:00;5.53;;;4.18;;
71715;SDS011;59568;52.128;5.434;2022-07-25T02:19:27;5.88;;;3.40;;
71715;SDS011;59568;52.128;5.434;2022-07-25T02:21:54;5.35;;;3.70;;
71715;SDS011;59568;52.128;5.434;2022-07-25T02:24:20;6.57;;;3.30;;
71715;SDS011;59568;52.128;5.434;2022-07-25T02:26:47;7.10;;;4.20;;
71715;SDS011;59568;52.128;5.434;2022-07-25T02:29:14;4.90;;;3.58;;
71715;SDS011;59568;52.128;5.434;2022-07-25T02:31:41;4.57;;;3.30;;
71715;SDS011;59568;52.128;5.434;2022-07-25T02:34:07;7.38;;;3.60;;
71715;SDS011;59568;52.128;5.434;2022-07-25T02:36:35;6.05;;;3.60;;
71715;SDS011;59568;52.128;5.434;2022-07-25T02:39:02;6.20;;;4.20;;
71715;SDS011;59568;52.128;5.434;2022-07-25T02:41:29;5.10;;;3.30;;
71715;SDS011;59568;52.128;5.434;2022-07-25T02:43:56;4.97;;;3.57;;
71715;SDS011;59568;52.128;5.434;2022-07-25T02:46:23;4.88;;;3.05;;
71715;SDS011;59568;52.128;5.434;2022-07-25T02:48:50;5.63;;;3.58;;
71715;SDS011;59568;52.128;5.434;2022-07-25T02:51:16;5.00;;;3.65;;
71715;SDS011;59568;52.128;5.434;2022-07-25T02:53:43;5.72;;;3.60;;
71715;SDS011;59568;52.128;5.434;2022-07-25T02:56:23;4.82;;;3.33;;
71715;SDS011;59568;52.128;5.434;2022-07-25T02:58:52;5.03;;;3.60;;
71715;SDS011;59568;52.128;5.434;2022-07-25T03:01:18;5.60;;;3.70;;
71715;SDS011;59568;52.128;5.434;2022-07-25T03:03:45;7.13;;;3.63;;
71715;SDS011;59568;52.128;5.434;2022-07-25T03:06:12;7.63;;;4.22;;
71715;SDS011;59568;52.128;5.434;2022-07-25T03:08:39;10.25;;;4.60;;
71715;SDS011;59568;52.128;5.434;2022-07-25T03:11:05;6.35;;;4.28;;
71715;SDS011;59568;52.128;5.434;2022-07-25T03:13:32;4.88;;;3.42;;
71715;SDS011;59568;52.128;5.434;2022-07-25T03:15:59;4.80;;;3.53;;
71715;SDS011;59568;52.128;5.434;2022-07-25T03:18:26;6.40;;;4.20;;
71715;SDS011;59568;52.128;5.434;2022-07-25T03:20:52;6.63;;;4.40;;
71715;SDS011;59568;52.128;5.434;2022-07-25T03:23:19;5.47;;;3.55;;
71715;SDS011;59568;52.128;5.434;2022-07-25T03:25:46;5.30;;;3.72;;
71715;SDS011;59568;52.128;5.434;2022-07-25T03:28:13;6.13;;;4.13;;
71715;SDS011;59568;52.128;5.434;2022-07-25T03:30:40;5.88;;;4.60;;
71715;SDS011;59568;52.128;5.434;2022-07-25T03:33:06;5.68;;;4.13;;
71715;SDS011;59568;52.128;5.434;2022-07-25T03:35:33;6.32;;;3.95;;
71715;SDS011;59568;52.128;5.434;2022-07-25T03:38:02;7.45;;;5.00;;
71715;SDS011;59568;52.128;5.434;2022-07-25T03:40:29;6.53;;;5.00;;
71715;SDS011;59568;52.128;5.434;2022-07-25T03:42:56;6.47;;;4.95;;
71715;SDS011;59568;52.128;5.434;2022-07-25T03:45:23;6.32;;;4.45;;
71715;SDS011;59568;52.128;5.434;2022-07-25T03:47:50;7.35;;;5.40;;
71715;SDS011;59568;52.128;5.434;2022-07-25T03:50:17;6.07;;;4.30;;
71715;SDS011;59568;52.128;5.434;2022-07-25T03:52:44;7.00;;;4.90;;
71715;SDS011;59568;52.128;5.434;2022-07-25T03:55:11;8.15;;;6.10;;
71715;SDS011;59568;52.128;5.434;2022-07-25T03:57:38;9.63;;;5.32;;
71715;SDS011;59568;52.128;5.434;2022-07-25T04:00:05;8.20;;;5.05;;
71715;SDS011;59568;52.128;5.434;2022-07-25T04:02:34;9.35;;;5.88;;
71715;SDS011;59568;52.128;5.434;2022-07-25T04:05:04;8.05;;;5.10;;
71715;SDS011;59568;52.128;5.434;2022-07-25T04:07:31;7.28;;;4.78;;
71715;SDS011;59568;52.128;5.434;2022-07-25T04:09:58;8.07;;;5.10;;
71715;SDS011;59568;52.128;5.434;2022-07-25T04:12:25;8.05;;;5.18;;
71715;SDS011;59568;52.128;5.434;2022-07-25T04:14:52;8.38;;;4.55;;
71715;SDS011;59568;52.128;5.434;2022-07-25T04:17:19;9.18;;;5.03;;
71715;SDS011;59568;52.128;5.434;2022-07-25T04:19:46;6.38;;;4.75;;
71715;SDS011;59568;52.128;5.434;2022-07-25T04:22:14;8.07;;;6.40;;
71715;SDS011;59568;52.128;5.434;2022-07-25T04:24:41;9.75;;;5.45;;
71715;SDS011;59568;52.128;5.434;2022-07-25T04:27:07;11.18;;;7.20;;
71715;SDS011;59568;52.128;5.434;2022-07-25T04:29:34;8.52;;;5.43;;
71715;SDS011;59568;52.128;5.434;2022-07-25T04:32:01;9.48;;;5.13;;
71715;SDS011;59568;52.128;5.434;2022-07-25T04:34:27;7.97;;;6.30;;
71715;SDS011;59568;52.128;5.434;2022-07-25T04:36:54;10.20;;;6.88;;
71715;SDS011;59568;52.128;5.434;2022-07-25T04:39:21;13.88;;;7.40;;
71715;SDS011;59568;52.128;5.434;2022-07-25T04:41:48;15.10;;;6.60;;
71715;SDS011;59568;52.128;5.434;2022-07-25T04:44:14;10.73;;;6.68;;
71715;SDS011;59568;52.128;5.434;2022-07-25T04:46:41;8.13;;;5.85;;
71715;SDS011;59568;52.128;5.434;2022-07-25T04:49:08;7.38;;;5.22;;
71715;SDS011;59568;52.128;5.434;2022-07-25T04:51:35;11.05;;;7.30;;
71715;SDS011;59568;52.128;5.434;2022-07-25T04:54:01;10.50;;;6.82;;
71715;SDS011;59568;52.128;5.434;2022-07-25T04:56:29;9.30;;;6.20;;
71715;SDS011;59568;52.128;5.434;2022-07-25T04:58:56;10.57;;;6.60;;
71715;SDS011;59568;52.128;5.434;2022-07-25T05:01:30;13.38;;;6.97;;
71715;SDS011;59568;52.128;5.434;2022-07-25T05:03:56;10.38;;;7.55;;
71715;SDS011;59568;52.128;5.434;2022-07-25T05:06:23;9.23;;;7.05;;
71715;SDS011;59568;52.128;5.434;2022-07-25T05:08:50;12.52;;;7.50;;
71715;SDS011;59568;52.128;5.434;2022-07-25T05:11:17;12.67;;;7.10;;
71715;SDS011;59568;52.128;5.434;2022-07-25T05:13:44;10.18;;;7.03;;
71715;SDS011;59568;52.128;5.434;2022-07-25T05:16:10;8.07;;;5.82;;
71715;SDS011;59568;52.128;5.434;2022-07-25T05:18:37;8.35;;;5.85;;
71715;SDS011;59568;52.128;5.434;2022-07-25T05:21:04;8.23;;;6.72;;
71715;SDS011;59568;52.128;5.434;2022-07-25T05:23:31;9.38;;;6.82;;
71715;SDS011;59568;52.128;5.434;2022-07-25T05:25:57;9.48;;;6.28;;
71715;SDS011;59568;52.128;5.434;2022-07-25T05:28:24;9.50;;;6.32;;
71715;SDS011;59568;52.128;5.434;2022-07-25T05:30:51;9.52;;;5.70;;
71715;SDS011;59568;52.128;5.434;2022-07-25T05:33:18;10.50;;;6.13;;
71715;SDS011;59568;52.128;5.434;2022-07-25T05:35:45;9.10;;;6.20;;
71715;SDS011;59568;52.128;5.434;2022-07-25T05:38:11;11.23;;;6.60;;
71715;SDS011;59568;52.128;5.434;2022-07-25T05:40:38;9.90;;;6.03;;
71715;SDS011;59568;52.128;5.434;2022-07-25T05:43:05;7.35;;;5.45;;
71715;SDS011;59568;52.128;5.434;2022-07-25T05:45:31;9.57;;;6.03;;
71715;SDS011;59568;52.128;5.434;2022-07-25T05:47:58;9.88;;;6.10;;
71715;SDS011;59568;52.128;5.434;2022-07-25T05:50:25;8.23;;;5.53;;
71715;SDS011;59568;52.128;5.434;2022-07-25T05:52:52;7.65;;;5.85;;
71715;SDS011;59568;52.128;5.434;2022-07-25T05:55:18;8.82;;;5.80;;
71715;SDS011;59568;52.128;5.434;2022-07-25T05:57:45;8.45;;;6.00;;
71715;SDS011;59568;52.128;5.434;2022-07-25T06:00:12;8.77;;;5.50;;
71715;SDS011;59568;52.128;5.434;2022-07-25T06:02:39;8.63;;;5.22;;
71715;SDS011;59568;52.128;5.434;2022-07-25T06:05:06;8.45;;;5.35;;
71715;SDS011;59568;52.128;5.434;2022-07-25T06:07:33;7.63;;;5.72;;
71715;SDS011;59568;52.128;5.434;2022-07-25T06:10:00;10.43;;;5.85;;
71715;SDS011;59568;52.128;5.434;2022-07-25T06:12:27;10.38;;;5.18;;
71715;SDS011;59568;52.128;5.434;2022-07-25T06:14:53;9.20;;;5.20;;
71715;SDS011;59568;52.128;5.434;2022-07-25T06:17:20;8.10;;;6.00;;
71715;SDS011;59568;52.128;5.434;2022-07-25T06:19:47;7.38;;;5.60;;
71715;SDS011;59568;52.128;5.434;2022-07-25T06:22:14;8.98;;;5.97;;
71715;SDS011;59568;52.128;5.434;2022-07-25T06:24:40;10.40;;;5.80;;
71715;SDS011;59568;52.128;5.434;2022-07-25T06:27:07;9.48;;;6.05;;
71715;SDS011;59568;52.128;5.434;2022-07-25T06:29:34;7.30;;;5.75;;
71715;SDS011;59568;52.128;5.434;2022-07-25T06:32:01;8.32;;;5.72;;
71715;SDS011;59568;52.128;5.434;2022-07-25T06:34:28;7.28;;;5.28;;
71715;SDS011;59568;52.128;5.434;2022-07-25T06:36:55;7.82;;;5.47;;
71715;SDS011;59568;52.128;5.434;2022-07-25T06:39:23;7.97;;;5.50;;
71715;SDS011;59568;52.128;5.434;2022-07-25T06:41:50;7.82;;;4.38;;
71715;SDS011;59568;52.128;5.434;2022-07-25T06:44:17;7.47;;;4.70;;
71715;SDS011;59568;52.128;5.434;2022-07-25T06:46:44;7.40;;;4.97;;
71715;SDS011;59568;52.128;5.434;2022-07-25T06:49:12;7.28;;;4.40;;
71715;SDS011;59568;52.128;5.434;2022-07-25T06:51:39;7.23;;;4.60;;
71715;SDS011;59568;52.128;5.434;2022-07-25T06:54:05;6.88;;;4.68;;
71715;SDS011;59568;52.128;5.434;2022-07-25T06:56:33;6.22;;;4.10;;
71715;SDS011;59568;52.128;5.434;2022-07-25T06:59:00;5.90;;;4.25;;
71715;SDS011;59568;52.128;5.434;2022-07-25T07:01:26;5.07;;;3.65;;
71715;SDS011;59568;52.128;5.434;2022-07-25T07:03:54;6.83;;;3.93;;
71715;SDS011;59568;52.128;5.434;2022-07-25T07:06:21;6.22;;;3.40;;
71715;SDS011;59568;52.128;5.434;2022-07-25T07:08:50;5.47;;;3.30;;
71715;SDS011;59568;52.128;5.434;2022-07-25T07:11:17;4.28;;;3.05;;
71715;SDS011;59568;52.128;5.434;2022-07-25T07:13:44;4.47;;;2.83;;
71715;SDS011;59568;52.128;5.434;2022-07-25T07:16:10;5.53;;;3.13;;
71715;SDS011;59568;52.128;5.434;2022-07-25T07:18:38;4.72;;;2.97;;
71715;SDS011;59568;52.128;5.434;2022-07-25T07:21:04;4.65;;;3.20;;
71715;SDS011;59568;52.128;5.434;2022-07-25T07:23:32;5.63;;;3.13;;
71715;SDS011;59568;52.128;5.434;2022-07-25T07:26:01;5.43;;;3.13;;
71715;SDS011;59568;52.128;5.434;2022-07-25T07:28:28;4.67;;;2.70;;
71715;SDS011;59568;52.128;5.434;2022-07-25T07:30:55;3.58;;;2.15;;
71715;SDS011;59568;52.128;5.434;2022-07-25T07:33:42;5.13;;;2.10;;
71715;SDS011;59568;52.128;5.434;2022-07-25T07:36:09;4.35;;;2.00;;
71715;SDS011;59568;52.128;5.434;2022-07-25T07:38:36;3.40;;;1.70;;
71715;SDS011;59568;52.128;5.434;2022-07-25T07:41:02;4.00;;;1.40;;
71715;SDS011;59568;52.128;5.434;2022-07-25T07:43:29;3.55;;;1.30;;
71715;SDS011;59568;52.128;5.434;2022-07-25T07:45:57;2.33;;;1.20;;
71715;SDS011;59568;52.128;5.434;2022-07-25T07:48:29;3.60;;;1.10;;
71715;SDS011;59568;52.128;5.434;2022-07-25T07:50:57;2.08;;;1.10;;
71715;SDS011;59568;52.128;5.434;2022-07-25T07:53:25;2.70;;;0.93;;
71715;SDS011;59568;52.128;5.434;2022-07-25T07:56:13;3.92;;;1.20;;
71715;SDS011;59568;52.128;5.434;2022-07-25T07:58:41;3.70;;;1.15;;
71715;SDS011;59568;52.128;5.434;2022-07-25T08:01:08;2.75;;;0.98;;
71715;SDS011;59568;52.128;5.434;2022-07-25T08:03:35;4.18;;;1.15;;
71715;SDS011;59568;52.128;5.434;2022-07-25T08:06:02;3.30;;;1.17;;
71715;SDS011;59568;52.128;5.434;2022-07-25T08:08:29;2.72;;;1.15;;
71715;SDS011;59568;52.128;5.434;2022-07-25T08:10:57;1.83;;;0.57;;
71715;SDS011;59568;52.128;5.434;2022-07-25T08:13:29;1.80;;;0.55;;
71715;SDS011;59568;52.128;5.434;2022-07-25T08:15:59;3.83;;;1.00;;
71715;SDS011;59568;52.128;5.434;2022-07-25T08:18:26;3.73;;;1.03;;
71715;SDS011;59568;52.128;5.434;2022-07-25T08:21:00;2.38;;;0.70;;
71715;SDS011;59568;52.128;5.434;2022-07-25T08:23:29;1.75;;;0.57;;
71715;SDS011;59568;52.128;5.434;2022-07-25T08:25:57;1.90;;;0.47;;
71715;SDS011;59568;52.128;5.434;2022-07-25T08:28:24;2.55;;;0.68;;
71715;SDS011;59568;52.128;5.434;2022-07-25T08:30:51;2.00;;;0.60;;
71715;SDS011;59568;52.128;5.434;2022-07-25T08:33:18;1.80;;;0.50;;
71715;SDS011;59568;52.128;5.434;2022-07-25T08:35:45;1.45;;;0.47;;
71715;SDS011;59568;52.128;5.434;2022-07-25T08:38:20;1.58;;;0.30;;
71715;SDS011;59568;52.128;5.434;2022-07-25T08:40:49;1.40;;;0.32;;
71715;SDS011;59568;52.128;5.434;2022-07-25T08:43:16;1.53;;;0.47;;
71715;SDS011;59568;52.128;5.434;2022-07-25T08:45:46;1.67;;;0.47;;
71715;SDS011;59568;52.128;5.434;2022-07-25T08:48:17;1.05;;;0.43;;
71715;SDS011;59568;52.128;5.434;2022-07-25T08:50:50;1.48;;;0.40;;
71715;SDS011;59568;52.128;5.434;2022-07-25T08:53:18;3.05;;;0.50;;
71715;SDS011;59568;52.128;5.434;2022-07-25T08:56:05;1.60;;;0.40;;
71715;SDS011;59568;52.128;5.434;2022-07-25T08:58:44;3.17;;;0.40;;
71715;SDS011;59568;52.128;5.434;2022-07-25T09:01:11;2.88;;;0.38;;
71715;SDS011;59568;52.128;5.434;2022-07-25T09:03:40;1.23;;;0.43;;
71715;SDS011;59568;52.128;5.434;2022-07-25T09:06:18;2.47;;;0.40;;
71715;SDS011;59568;52.128;5.434;2022-07-25T09:08:54;1.70;;;0.50;;
71715;SDS011;59568;52.128;5.434;2022-07-25T09:11:26;1.33;;;0.32;;
71715;SDS011;59568;52.128;5.434;2022-07-25T09:13:58;1.27;;;0.30;;
71715;SDS011;59568;52.128;5.434;2022-07-25T09:16:31;2.53;;;0.38;;
71715;SDS011;59568;52.128;5.434;2022-07-25T09:19:08;3.72;;;0.50;;
71715;SDS011;59568;52.128;5.434;2022-07-25T09:21:43;3.10;;;0.40;;
71715;SDS011;59568;52.128;5.434;2022-07-25T09:24:12;2.60;;;0.63;;
71715;SDS011;59568;52.128;5.434;2022-07-25T09:26:46;3.70;;;0.52;;
71715;SDS011;59568;52.128;5.434;2022-07-25T09:29:15;2.42;;;0.65;;
71715;SDS011;59568;52.128;5.434;2022-07-25T09:31:54;2.63;;;0.68;;
71715;SDS011;59568;52.128;5.434;2022-07-25T09:34:31;2.37;;;0.63;;
71715;SDS011;59568;52.128;5.434;2022-07-25T09:37:08;2.42;;;0.57;;
71715;SDS011;59568;52.128;5.434;2022-07-25T09:39:44;4.15;;;0.70;;
71715;SDS011;59568;52.128;5.434;2022-07-25T09:42:26;2.47;;;0.70;;
71715;SDS011;59568;52.128;5.434;2022-07-25T09:44:59;1.92;;;0.50;;
71715;SDS011;59568;52.128;5.434;2022-07-25T09:47:29;3.10;;;0.70;;
71715;SDS011;59568;52.128;5.434;2022-07-25T09:49:56;2.90;;;0.68;;
71715;SDS011;59568;52.128;5.434;2022-07-25T09:52:24;2.45;;;0.60;;
71715;SDS011;59568;52.128;5.434;2022-07-25T09:54:50;2.63;;;0.55;;
71715;SDS011;59568;52.128;5.434;2022-07-25T09:57:17;2.35;;;0.70;;
71715;SDS011;59568;52.128;5.434;2022-07-25T09:59:44;4.93;;;0.40;;
71715;SDS011;59568;52.128;5.434;2022-07-25T10:07:32;1.95;;;0.50;;
71715;SDS011;59568;52.128;5.434;2022-07-25T10:10:07;3.88;;;1.00;;
71715;SDS011;59568;52.128;5.434;2022-07-25T10:12:34;3.83;;;0.80;;
71715;SDS011;59568;52.128;5.434;2022-07-25T10:17:34;3.92;;;0.82;;
71715;SDS011;59568;52.128;5.434;2022-07-25T10:20:03;3.58;;;0.68;;
71715;SDS011;59568;52.128;5.434;2022-07-25T10:22:35;2.65;;;0.68;;
71715;SDS011;59568;52.128;5.434;2022-07-25T10:25:23;3.17;;;0.90;;
71715;SDS011;59568;52.128;5.434;2022-07-25T10:27:51;4.97;;;1.65;;
71715;SDS011;59568;52.128;5.434;2022-07-25T10:30:27;2.60;;;0.90;;
71715;SDS011;59568;52.128;5.434;2022-07-25T10:33:01;2.40;;;0.75;;
71715;SDS011;59568;52.128;5.434;2022-07-25T10:35:30;6.50;;;1.08;;
71715;SDS011;59568;52.128;5.434;2022-07-25T10:37:57;4.97;;;1.03;;
71715;SDS011;59568;52.128;5.434;2022-07-25T10:40:32;2.60;;;1.15;;
71715;SDS011;59568;52.128;5.434;2022-07-25T10:43:18;3.58;;;1.25;;
71715;SDS011;59568;52.128;5.434;2022-07-25T10:45:55;3.65;;;1.45;;
71715;SDS011;59568;52.128;5.434;2022-07-25T10:48:26;2.28;;;0.90;;
71715;SDS011;59568;52.128;5.434;2022-07-25T10:50:59;2.60;;;0.93;;
71715;SDS011;59568;52.128;5.434;2022-07-25T10:56:12;6.47;;;1.55;;
71715;SDS011;59568;52.128;5.434;2022-07-25T10:58:51;2.33;;;1.08;;
71715;SDS011;59568;52.128;5.434;2022-07-25T11:03:49;4.57;;;1.63;;
71715;SDS011;59568;52.128;5.434;2022-07-25T11:06:28;3.28;;;1.50;;
71715;SDS011;59568;52.128;5.434;2022-07-25T11:08:55;4.00;;;1.60;;
71715;SDS011;59568;52.128;5.434;2022-07-25T11:11:38;4.35;;;1.20;;
71715;SDS011;59568;52.128;5.434;2022-07-25T11:14:15;3.05;;;1.00;;
71715;SDS011;59568;52.128;5.434;2022-07-25T11:16:50;4.00;;;0.90;;
71715;SDS011;59568;52.128;5.434;2022-07-25T11:19:20;4.03;;;0.80;;
71715;SDS011;59568;52.128;5.434;2022-07-25T11:21:53;2.58;;;0.90;;
71715;SDS011;59568;52.128;5.434;2022-07-25T11:27:23;1.73;;;0.80;;
71715;SDS011;59568;52.128;5.434;2022-07-25T11:29:53;3.73;;;0.70;;
71715;SDS011;59568;52.128;5.434;2022-07-25T11:35:30;3.38;;;1.17;;
71715;SDS011;59568;52.128;5.434;2022-07-25T11:37:59;5.35;;;1.00;;
71715;SDS011;59568;52.128;5.434;2022-07-25T11:40:27;6.18;;;0.70;;
71715;SDS011;59568;52.128;5.434;2022-07-25T11:42:56;3.67;;;1.13;;
71715;SDS011;59568;52.128;5.434;2022-07-25T11:45:26;7.30;;;1.33;;
71715;SDS011;59568;52.128;5.434;2022-07-25T11:48:10;3.28;;;0.80;;
71715;SDS011;59568;52.128;5.434;2022-07-25T11:50:40;4.97;;;0.80;;
71715;SDS011;59568;52.128;5.434;2022-07-25T11:53:09;4.90;;;0.70;;
71715;SDS011;59568;52.128;5.434;2022-07-25T11:55:40;3.00;;;1.00;;
71715;SDS011;59568;52.128;5.434;2022-07-25T11:58:09;4.15;;;0.80;;
71715;SDS011;59568;52.128;5.434;2022-07-25T12:00:41;6.72;;;1.25;;
71715;SDS011;59568;52.128;5.434;2022-07-25T12:03:12;5.90;;;1.23;;
71715;SDS011;59568;52.128;5.434;2022-07-25T12:05:45;5.45;;;0.93;;
71715;SDS011;59568;52.128;5.434;2022-07-25T12:08:16;6.57;;;1.00;;
71715;SDS011;59568;52.128;5.434;2022-07-25T12:10:45;4.55;;;0.95;;
71715;SDS011;59568;52.128;5.434;2022-07-25T12:13:29;4.57;;;1.10;;
71715;SDS011;59568;52.128;5.434;2022-07-25T12:15:56;4.82;;;1.02;;
71715;SDS011;59568;52.128;5.434;2022-07-25T12:18:25;5.13;;;0.80;;
71715;SDS011;59568;52.128;5.434;2022-07-25T12:20:52;4.70;;;1.00;;
71715;SDS011;59568;52.128;5.434;2022-07-25T12:23:19;3.30;;;1.00;;
71715;SDS011;59568;52.128;5.434;2022-07-25T12:25:47;3.67;;;0.70;;
71715;SDS011;59568;52.128;5.434;2022-07-25T12:28:14;4.82;;;0.90;;
71715;SDS011;59568;52.128;5.434;2022-07-25T12:30:41;5.50;;;1.27;;
71715;SDS011;59568;52.128;5.434;2022-07-25T12:33:10;5.20;;;1.07;;
71715;SDS011;59568;52.128;5.434;2022-07-25T12:35:41;4.25;;;1.20;;
71715;SDS011;59568;52.128;5.434;2022-07-25T12:38:09;5.38;;;1.05;;
71715;SDS011;59568;52.128;5.434;2022-07-25T12:40:36;4.18;;;0.90;;
71715;SDS011;59568;52.128;5.434;2022-07-25T12:43:03;7.00;;;1.00;;
71715;SDS011;59568;52.128;5.434;2022-07-25T12:45:30;6.82;;;1.10;;
71715;SDS011;59568;52.128;5.434;2022-07-25T12:47:57;7.00;;;1.17;;
71715;SDS011;59568;52.128;5.434;2022-07-25T12:50:23;5.18;;;1.13;;
71715;SDS011;59568;52.128;5.434;2022-07-25T12:52:51;4.47;;;1.10;;
71715;SDS011;59568;52.128;5.434;2022-07-25T12:55:18;6.90;;;0.98;;
71715;SDS011;59568;52.128;5.434;2022-07-25T12:57:46;6.22;;;1.17;;
71715;SDS011;59568;52.128;5.434;2022-07-25T13:00:14;5.65;;;1.17;;
71715;SDS011;59568;52.128;5.434;2022-07-25T13:02:44;6.03;;;1.20;;
71715;SDS011;59568;52.128;5.434;2022-07-25T13:05:11;5.47;;;1.20;;
71715;SDS011;59568;52.128;5.434;2022-07-25T13:07:38;3.03;;;1.17;;
71715;SDS011;59568;52.128;5.434;2022-07-25T13:10:05;5.43;;;0.97;;
71715;SDS011;59568;52.128;5.434;2022-07-25T13:12:32;4.40;;;0.70;;
71715;SDS011;59568;52.128;5.434;2022-07-25T13:15:00;4.45;;;0.70;;
71715;SDS011;59568;52.128;5.434;2022-07-25T13:17:27;4.88;;;1.20;;
71715;SDS011;59568;52.128;5.434;2022-07-25T13:19:54;7.43;;;0.70;;
71715;SDS011;59568;52.128;5.434;2022-07-25T13:22:23;3.60;;;1.43;;
71715;SDS011;59568;52.128;5.434;2022-07-25T13:24:50;4.85;;;0.88;;
71715;SDS011;59568;52.128;5.434;2022-07-25T13:27:18;7.30;;;0.85;;
71715;SDS011;59568;52.128;5.434;2022-07-25T13:29:46;3.45;;;0.70;;
71715;SDS011;59568;52.128;5.434;2022-07-25T13:32:19;5.28;;;0.73;;
71715;SDS011;59568;52.128;5.434;2022-07-25T13:34:46;7.23;;;0.63;;
71715;SDS011;59568;52.128;5.434;2022-07-25T13:37:13;3.22;;;0.60;;
71715;SDS011;59568;52.128;5.434;2022-07-25T13:39:40;5.28;;;0.85;;
71715;SDS011;59568;52.128;5.434;2022-07-25T13:42:07;4.80;;;0.95;;
71715;SDS011;59568;52.128;5.434;2022-07-25T13:44:34;7.45;;;1.20;;
71715;SDS011;59568;52.128;5.434;2022-07-25T13:47:01;5.23;;;0.80;;
71715;SDS011;59568;52.128;5.434;2022-07-25T13:49:28;4.65;;;1.00;;
71715;SDS011;59568;52.128;5.434;2022-07-25T13:51:56;4.55;;;0.90;;
71715;SDS011;59568;52.128;5.434;2022-07-25T13:54:23;3.47;;;0.85;;
71715;SDS011;59568;52.128;5.434;2022-07-25T13:56:50;10.60;;;1.25;;
71715;SDS011;59568;52.128;5.434;2022-07-25T13:59:16;6.10;;;1.17;;
71715;SDS011;59568;52.128;5.434;2022-07-25T14:01:47;4.72;;;0.55;;
71715;SDS011;59568;52.128;5.434;2022-07-25T14:04:14;5.10;;;0.70;;
71715;SDS011;59568;52.128;5.434;2022-07-25T14:06:41;6.85;;;1.02;;
71715;SDS011;59568;52.128;5.434;2022-07-25T14:09:08;4.63;;;0.60;;
71715;SDS011;59568;52.128;5.434;2022-07-25T14:11:36;3.23;;;0.60;;
71715;SDS011;59568;52.128;5.434;2022-07-25T14:14:02;4.60;;;1.63;;
71715;SDS011;59568;52.128;5.434;2022-07-25T14:16:29;6.40;;;0.75;;
71715;SDS011;59568;52.128;5.434;2022-07-25T14:18:56;4.80;;;0.55;;
71715;SDS011;59568;52.128;5.434;2022-07-25T14:21:23;3.90;;;0.70;;
71715;SDS011;59568;52.128;5.434;2022-07-25T14:23:50;4.67;;;0.80;;
71715;SDS011;59568;52.128;5.434;2022-07-25T14:26:17;5.40;;;0.70;;
71715;SDS011;59568;52.128;5.434;2022-07-25T14:28:44;6.43;;;0.70;;
71715;SDS011;59568;52.128;5.434;2022-07-25T14:31:11;5.00;;;0.50;;
71715;SDS011;59568;52.128;5.434;2022-07-25T14:33:38;8.50;;;1.42;;
71715;SDS011;59568;52.128;5.434;2022-07-25T14:36:06;5.73;;;0.50;;
71715;SDS011;59568;52.128;5.434;2022-07-25T14:38:33;7.38;;;0.95;;
71715;SDS011;59568;52.128;5.434;2022-07-25T14:41:01;2.42;;;0.30;;
71715;SDS011;59568;52.128;5.434;2022-07-25T14:43:34;4.05;;;0.40;;
71715;SDS011;59568;52.128;5.434;2022-07-25T14:46:00;5.00;;;0.40;;
71715;SDS011;59568;52.128;5.434;2022-07-25T14:48:27;5.93;;;0.30;;
71715;SDS011;59568;52.128;5.434;2022-07-25T14:50:54;2.05;;;0.32;;
71715;SDS011;59568;52.128;5.434;2022-07-25T14:53:21;3.15;;;0.40;;
71715;SDS011;59568;52.128;5.434;2022-07-25T14:55:47;11.30;;;2.05;;
71715;SDS011;59568;52.128;5.434;2022-07-25T14:58:14;4.10;;;0.32;;
71715;SDS011;59568;52.128;5.434;2022-07-25T15:00:41;4.17;;;0.27;;
71715;SDS011;59568;52.128;5.434;2022-07-25T15:03:09;1.67;;;0.35;;
71715;SDS011;59568;52.128;5.434;2022-07-25T15:05:36;3.85;;;0.30;;
71715;SDS011;59568;52.128;5.434;2022-07-25T15:08:04;2.45;;;0.40;;
71715;SDS011;59568;52.128;5.434;2022-07-25T15:10:32;5.82;;;0.30;;
71715;SDS011;59568;52.128;5.434;2022-07-25T15:12:59;2.93;;;0.20;;
71715;SDS011;59568;52.128;5.434;2022-07-25T15:15:46;3.22;;;0.30;;